sensor_id;sensor_type;location;lat;lon;timestamp;temperature;humidity
59025;DHT22;44806;48.008;13.666;2024-01-15T00:02:13;-3.30;99.90
59025;DHT22;44806;48.008;13.666;2024-01-15T00:04:41;-3.30;99.90
59025;DHT22;44806;48.008;13.666;2024-01-15T00:07:09;-3.30;99.90
59025;DHT22;44806;48.008;13.666;2024-01-15T00:09:36;-3.30;99.90
59025;DHT22;44806;48.008;13.666;2024-01-15T00:12:04;-3.30;99.90
59025;DHT22;44806;48.008;13.666;2024-01-15T00:14:31;-3.20;99.90
59025;DHT22;44806;48.008;13.666;2024-01-15T00:16:58;-3.10;99.90
59025;DHT22;44806;48.008;13.666;2024-01-15T00:19:24;-3.00;99.90
59025;DHT22;44806;48.008;13.666;2024-01-15T00:21:52;-3.00;99.90
59025;DHT22;44806;48.008;13.666;2024-01-15T00:24:20;-2.90;99.90
59025;DHT22;44806;48.008;13.666;2024-01-15T00:26:47;-2.90;99.90
59025;DHT22;44806;48.008;13.666;2024-01-15T00:29:14;-2.90;99.90
59025;DHT22;44806;48.008;13.666;2024-01-15T00:31:41;-2.90;99.90
59025;DHT22;44806;48.008;13.666;2024-01-15T00:34:08;-2.90;99.90
59025;DHT22;44806;48.008;13.666;2024-01-15T00:36:35;-2.80;99.90
59025;DHT22;44806;48.008;13.666;2024-01-15T00:39:02;-2.90;99.90
59025;DHT22;44806;48.008;13.666;2024-01-15T00:41:32;-2.80;99.90
59025;DHT22;44806;48.008;13.666;2024-01-15T00:43:58;-2.80;99.90
59025;DHT22;44806;48.008;13.666;2024-01-15T00:46:25;-2.80;99.90
59025;DHT22;44806;48.008;13.666;2024-01-15T00:48:52;-2.70;99.90
59025;DHT22;44806;48.008;13.666;2024-01-15T00:51:19;-2.70;99.90
59025;DHT22;44806;48.008;13.666;2024-01-15T00:53:46;-2.60;99.90
59025;DHT22;44806;48.008;13.666;2024-01-15T00:56:13;-2.60;99.90
59025;DHT22;44806;48.008;13.666;2024-01-15T00:58:41;-2.60;99.90
59025;DHT22;44806;48.008;13.666;2024-01-15T01:01:08;-2.50;99.90
59025;DHT22;44806;48.008;13.666;2024-01-15T01:03:35;-2.50;99.90
59025;DHT22;44806;48.008;13.666;2024-01-15T01:06:02;-2.40;99.90
59025;DHT22;44806;48.008;13.666;2024-01-15T01:08:29;-2.40;99.90
59025;DHT22;44806;48.008;13.666;2024-01-15T01:10:56;-2.40;99.90
59025;DHT22;44806;48.008;13.666;2024-01-15T01:13:23;-2.20;99.90
59025;DHT22;44806;48.008;13.666;2024-01-15T01:15:51;-2.20;99.90
59025;DHT22;44806;48.008;13.666;2024-01-15T01:18:18;-2.10;99.90
59025;DHT22;44806;48.008;13.666;2024-01-15T01:20:45;-2.00;99.90
59025;DHT22;44806;48.008;13.666;2024-01-15T01:23:12;-2.00;99.90
59025;DHT22;44806;48.008;13.666;2024-01-15T01:25:39;-2.00;99.90
59025;DHT22;44806;48.008;13.666;2024-01-15T01:28:06;-1.90;99.90
59025;DHT22;44806;48.008;13.666;2024-01-15T01:30:33;-1.90;99.90
59025;DHT22;44806;48.008;13.666;2024-01-15T01:33:01;-1.90;99.90
59025;DHT22;44806;48.008;13.666;2024-01-15T01:35:28;-1.90;99.90
59025;DHT22;44806;48.008;13.666;2024-01-15T01:37:55;-1.90;99.90
59025;DHT22;44806;48.008;13.666;2024-01-15T01:40:22;-1.90;99.90
59025;DHT22;44806;48.008;13.666;2024-01-15T01:42:49;-1.90;99.90
59025;DHT22;44806;48.008;13.666;2024-01-15T01:45:16;-1.80;99.90
59025;DHT22;44806;48.008;13.666;2024-01-15T01:47:43;-1.80;99.90
59025;DHT22;44806;48.008;13.666;2024-01-15T01:50:11;-1.80;99.90
59025;DHT22;44806;48.008;13.666;2024-01-15T01:52:39;-1.80;99.90
59025;DHT22;44806;48.008;13.666;2024-01-15T01:55:07;-1.80;99.90
59025;DHT22;44806;48.008;13.666;2024-01-15T01:57:35;-1.70;99.90
59025;DHT22;44806;48.008;13.666;2024-01-15T02:00:03;-1.80;99.90
59025;DHT22;44806;48.008;13.666;2024-01-15T02:02:32;-1.80;99.90
59025;DHT22;44806;48.008;13.666;2024-01-15T02:05:00;-1.80;99.90
59025;DHT22;44806;48.008;13.666;2024-01-15T02:07:28;-1.80;99.90
59025;DHT22;44806;48.008;13.666;2024-01-15T02:09:55;-1.80;99.90
59025;DHT22;44806;48.008;13.666;2024-01-15T02:12:22;-1.80;99.90
59025;DHT22;44806;48.008;13.666;2024-01-15T02:14:49;-1.80;99.90
59025;DHT22;44806;48.008;13.666;2024-01-15T02:17:16;-1.80;99.90
59025;DHT22;44806;48.008;13.666;2024-01-15T02:19:43;-1.70;99.90
59025;DHT22;44806;48.008;13.666;2024-01-15T02:22:10;-1.70;99.90
59025;DHT22;44806;48.008;13.666;2024-01-15T02:24:38;-1.60;99.90
59025;DHT22;44806;48.008;13.666;2024-01-15T02:27:05;-1.50;99.90
59025;DHT22;44806;48.008;13.666;2024-01-15T02:29:32;-1.50;99.90
59025;DHT22;44806;48.008;13.666;2024-01-15T02:31:59;-1.30;99.90
59025;DHT22;44806;48.008;13.666;2024-01-15T02:34:31;-1.20;99.90
59025;DHT22;44806;48.008;13.666;2024-01-15T02:36:58;-1.00;99.90
59025;DHT22;44806;48.008;13.666;2024-01-15T02:39:25;-0.90;99.90
59025;DHT22;44806;48.008;13.666;2024-01-15T02:41:53;-0.80;99.90
59025;DHT22;44806;48.008;13.666;2024-01-15T02:44:21;-0.60;99.90
59025;DHT22;44806;48.008;13.666;2024-01-15T02:46:48;-0.60;99.90
59025;DHT22;44806;48.008;13.666;2024-01-15T02:49:15;-0.50;99.90
59025;DHT22;44806;48.008;13.666;2024-01-15T02:51:42;-0.40;99.90
59025;DHT22;44806;48.008;13.666;2024-01-15T02:54:09;-0.30;99.90
59025;DHT22;44806;48.008;13.666;2024-01-15T02:56:36;-0.10;99.90
59025;DHT22;44806;48.008;13.666;2024-01-15T02:59:04;-0.10;99.90
59025;DHT22;44806;48.008;13.666;2024-01-15T03:01:31;0.00;99.90
59025;DHT22;44806;48.008;13.666;2024-01-15T03:03:58;0.00;99.90
59025;DHT22;44806;48.008;13.666;2024-01-15T03:06:25;0.10;99.90
59025;DHT22;44806;48.008;13.666;2024-01-15T03:08:52;0.10;99.90
59025;DHT22;44806;48.008;13.666;2024-01-15T03:11:19;0.20;99.90
59025;DHT22;44806;48.008;13.666;2024-01-15T03:13:46;0.20;99.90
59025;DHT22;44806;48.008;13.666;2024-01-15T03:16:14;0.20;99.90
59025;DHT22;44806;48.008;13.666;2024-01-15T03:18:41;0.30;99.90
59025;DHT22;44806;48.008;13.666;2024-01-15T03:21:08;0.20;99.90
59025;DHT22;44806;48.008;13.666;2024-01-15T03:23:35;0.20;99.90
59025;DHT22;44806;48.008;13.666;2024-01-15T03:26:02;0.30;99.90
59025;DHT22;44806;48.008;13.666;2024-01-15T03:28:29;0.30;99.90
59025;DHT22;44806;48.008;13.666;2024-01-15T03:30:56;0.30;99.90
59025;DHT22;44806;48.008;13.666;2024-01-15T03:33:24;0.30;99.90
59025;DHT22;44806;48.008;13.666;2024-01-15T03:35:51;0.30;99.90
59025;DHT22;44806;48.008;13.666;2024-01-15T03:38:18;0.30;99.90
59025;DHT22;44806;48.008;13.666;2024-01-15T03:40:45;0.30;99.90
59025;DHT22;44806;48.008;13.666;2024-01-15T03:43:12;0.30;99.90
59025;DHT22;44806;48.008;13.666;2024-01-15T03:45:39;0.30;99.90
59025;DHT22;44806;48.008;13.666;2024-01-15T03:48:06;0.30;99.90
59025;DHT22;44806;48.008;13.666;2024-01-15T03:50:34;0.30;99.90
59025;DHT22;44806;48.008;13.666;2024-01-15T03:53:01;0.30;99.90
59025;DHT22;44806;48.008;13.666;2024-01-15T03:55:28;0.40;99.90
59025;DHT22;44806;48.008;13.666;2024-01-15T03:57:55;0.30;99.90
59025;DHT22;44806;48.008;13.666;2024-01-15T04:00:22;0.30;99.90
59025;DHT22;44806;48.008;13.666;2024-01-15T04:02:49;0.30;99.90
59025;DHT22;44806;48.008;13.666;2024-01-15T04:05:16;0.30;99.90
59025;DHT22;44806;48.008;13.666;2024-01-15T04:07:44;0.30;99.90
59025;DHT22;44806;48.008;13.666;2024-01-15T04:10:11;0.30;99.90
59025;DHT22;44806;48.008;13.666;2024-01-15T04:12:38;0.30;99.90
59025;DHT22;44806;48.008;13.666;2024-01-15T04:15:06;0.30;99.90
59025;DHT22;44806;48.008;13.666;2024-01-15T04:17:33;0.40;99.90
59025;DHT22;44806;48.008;13.666;2024-01-15T04:20:00;0.40;99.90
59025;DHT22;44806;48.008;13.666;2024-01-15T04:22:27;0.40;99.90
59025;DHT22;44806;48.008;13.666;2024-01-15T04:24:55;0.40;99.90
59025;DHT22;44806;48.008;13.666;2024-01-15T04:27:22;0.50;99.90
59025;DHT22;44806;48.008;13.666;2024-01-15T04:29:49;0.40;99.90
59025;DHT22;44806;48.008;13.666;2024-01-15T04:32:16;0.40;99.90
59025;DHT22;44806;48.008;13.666;2024-01-15T04:34:43;0.40;99.90
59025;DHT22;44806;48.008;13.666;2024-01-15T04:37:10;0.40;99.90
59025;DHT22;44806;48.008;13.666;2024-01-15T04:39:37;0.40;99.90
59025;DHT22;44806;48.008;13.666;2024-01-15T04:42:06;0.40;99.90
59025;DHT22;44806;48.008;13.666;2024-01-15T04:44:33;0.40;99.90
59025;DHT22;44806;48.008;13.666;2024-01-15T04:47:00;0.40;99.90
59025;DHT22;44806;48.008;13.666;2024-01-15T04:49:27;0.40;99.90
59025;DHT22;44806;48.008;13.666;2024-01-15T04:51:55;0.40;99.90
59025;DHT22;44806;48.008;13.666;2024-01-15T04:54:22;0.40;99.90
59025;DHT22;44806;48.008;13.666;2024-01-15T04:56:49;0.40;99.90
59025;DHT22;44806;48.008;13.666;2024-01-15T04:59:17;0.40;99.90
59025;DHT22;44806;48.008;13.666;2024-01-15T05:01:44;0.40;99.90
59025;DHT22;44806;48.008;13.666;2024-01-15T05:04:11;0.30;99.90
59025;DHT22;44806;48.008;13.666;2024-01-15T05:06:37;0.30;99.90
59025;DHT22;44806;48.008;13.666;2024-01-15T05:09:04;0.30;99.90
59025;DHT22;44806;48.008;13.666;2024-01-15T05:11:32;0.30;99.90
59025;DHT22;44806;48.008;13.666;2024-01-15T05:13:59;0.30;99.90
59025;DHT22;44806;48.008;13.666;2024-01-15T05:16:27;0.30;99.90
59025;DHT22;44806;48.008;13.666;2024-01-15T05:18:54;0.30;99.90
59025;DHT22;44806;48.008;13.666;2024-01-15T05:21:21;0.30;99.90
59025;DHT22;44806;48.008;13.666;2024-01-15T05:23:48;0.40;99.90
59025;DHT22;44806;48.008;13.666;2024-01-15T05:26:15;0.30;99.90
59025;DHT22;44806;48.008;13.666;2024-01-15T05:28:42;0.30;99.90
59025;DHT22;44806;48.008;13.666;2024-01-15T05:31:09;0.40;99.90
59025;DHT22;44806;48.008;13.666;2024-01-15T05:33:38;0.40;99.90
59025;DHT22;44806;48.008;13.666;2024-01-15T05:36:05;0.40;99.90
59025;DHT22;44806;48.008;13.666;2024-01-15T05:38:32;0.40;99.90
59025;DHT22;44806;48.008;13.666;2024-01-15T05:40:59;0.50;99.90
59025;DHT22;44806;48.008;13.666;2024-01-15T05:43:26;0.40;99.90
59025;DHT22;44806;48.008;13.666;2024-01-15T05:45:53;0.40;99.90
59025;DHT22;44806;48.008;13.666;2024-01-15T05:48:20;0.40;99.90
59025;DHT22;44806;48.008;13.666;2024-01-15T05:50:48;0.40;99.90
59025;DHT22;44806;48.008;13.666;2024-01-15T05:53:15;0.40;99.90
59025;DHT22;44806;48.008;13.666;2024-01-15T05:55:42;0.50;99.90
59025;DHT22;44806;48.008;13.666;2024-01-15T05:58:09;0.50;99.90
59025;DHT22;44806;48.008;13.666;2024-01-15T06:00:36;0.50;99.90
59025;DHT22;44806;48.008;13.666;2024-01-15T06:03:04;0.50;99.90
59025;DHT22;44806;48.008;13.666;2024-01-15T06:05:31;0.50;99.90
59025;DHT22;44806;48.008;13.666;2024-01-15T06:07:59;0.50;99.90
59025;DHT22;44806;48.008;13.666;2024-01-15T06:10:26;0.50;99.90
59025;DHT22;44806;48.008;13.666;2024-01-15T06:12:53;0.50;99.90
59025;DHT22;44806;48.008;13.666;2024-01-15T06:15:20;0.60;99.90
59025;DHT22;44806;48.008;13.666;2024-01-15T06:17:47;0.60;99.90
59025;DHT22;44806;48.008;13.666;2024-01-15T06:20:14;0.50;99.90
59025;DHT22;44806;48.008;13.666;2024-01-15T06:22:41;0.50;99.90
59025;DHT22;44806;48.008;13.666;2024-01-15T06:25:09;0.50;99.90
59025;DHT22;44806;48.008;13.666;2024-01-15T06:27:36;0.60;99.90
59025;DHT22;44806;48.008;13.666;2024-01-15T06:30:04;0.60;99.90
59025;DHT22;44806;48.008;13.666;2024-01-15T06:32:32;0.60;99.90
59025;DHT22;44806;48.008;13.666;2024-01-15T06:34:59;0.60;99.90
59025;DHT22;44806;48.008;13.666;2024-01-15T06:37:26;0.60;99.90
59025;DHT22;44806;48.008;13.666;2024-01-15T06:39:53;0.60;99.90
59025;DHT22;44806;48.008;13.666;2024-01-15T06:42:21;0.60;99.90
59025;DHT22;44806;48.008;13.666;2024-01-15T06:44:48;0.60;99.90
59025;DHT22;44806;48.008;13.666;2024-01-15T06:47:15;0.60;99.90
59025;DHT22;44806;48.008;13.666;2024-01-15T06:49:43;0.60;99.90
59025;DHT22;44806;48.008;13.666;2024-01-15T06:52:10;0.60;99.90
59025;DHT22;44806;48.008;13.666;2024-01-15T06:54:37;0.70;99.90
59025;DHT22;44806;48.008;13.666;2024-01-15T06:57:05;0.70;99.90
59025;DHT22;44806;48.008;13.666;2024-01-15T06:59:34;0.70;99.90
59025;DHT22;44806;48.008;13.666;2024-01-15T07:02:01;0.70;99.90
59025;DHT22;44806;48.008;13.666;2024-01-15T07:04:28;0.70;99.90
59025;DHT22;44806;48.008;13.666;2024-01-15T07:06:55;0.70;99.90
59025;DHT22;44806;48.008;13.666;2024-01-15T07:09:22;0.70;99.90
59025;DHT22;44806;48.008;13.666;2024-01-15T07:11:49;0.70;99.90
59025;DHT22;44806;48.008;13.666;2024-01-15T07:14:17;0.70;99.90
59025;DHT22;44806;48.008;13.666;2024-01-15T07:16:45;0.70;99.90
59025;DHT22;44806;48.008;13.666;2024-01-15T07:19:12;0.70;99.90
59025;DHT22;44806;48.008;13.666;2024-01-15T07:21:39;0.70;99.90
59025;DHT22;44806;48.008;13.666;2024-01-15T07:24:08;0.80;99.90
59025;DHT22;44806;48.008;13.666;2024-01-15T07:26:36;0.70;99.90
59025;DHT22;44806;48.008;13.666;2024-01-15T07:29:02;0.70;99.90
59025;DHT22;44806;48.008;13.666;2024-01-15T07:31:30;0.70;99.90
59025;DHT22;44806;48.008;13.666;2024-01-15T07:33:59;0.70;99.90
59025;DHT22;44806;48.008;13.666;2024-01-15T07:36:26;0.80;99.90
59025;DHT22;44806;48.008;13.666;2024-01-15T07:38:53;0.70;99.90
59025;DHT22;44806;48.008;13.666;2024-01-15T07:41:20;0.70;99.90
59025;DHT22;44806;48.008;13.666;2024-01-15T07:43:47;0.70;99.90
59025;DHT22;44806;48.008;13.666;2024-01-15T07:46:14;0.70;99.90
59025;DHT22;44806;48.008;13.666;2024-01-15T07:48:41;0.70;99.90
59025;DHT22;44806;48.008;13.666;2024-01-15T07:51:10;0.70;99.90
59025;DHT22;44806;48.008;13.666;2024-01-15T07:53:37;0.80;99.90
59025;DHT22;44806;48.008;13.666;2024-01-15T07:56:04;0.80;99.90
59025;DHT22;44806;48.008;13.666;2024-01-15T07:58:31;0.70;99.90
59025;DHT22;44806;48.008;13.666;2024-01-15T08:00:58;0.80;99.90
59025;DHT22;44806;48.008;13.666;2024-01-15T08:03:25;0.90;99.90
59025;DHT22;44806;48.008;13.666;2024-01-15T08:05:52;1.00;99.90
59025;DHT22;44806;48.008;13.666;2024-01-15T08:08:21;0.80;99.90
59025;DHT22;44806;48.008;13.666;2024-01-15T08:10:49;0.80;99.90
59025;DHT22;44806;48.008;13.666;2024-01-15T08:13:15;0.70;99.90
59025;DHT22;44806;48.008;13.666;2024-01-15T08:15:42;0.70;99.90
59025;DHT22;44806;48.008;13.666;2024-01-15T08:18:09;0.80;99.90
59025;DHT22;44806;48.008;13.666;2024-01-15T08:20:36;0.90;99.90
59025;DHT22;44806;48.008;13.666;2024-01-15T08:23:03;0.80;99.90
59025;DHT22;44806;48.008;13.666;2024-01-15T08:25:32;0.90;99.90
59025;DHT22;44806;48.008;13.666;2024-01-15T08:27:58;0.90;99.90
59025;DHT22;44806;48.008;13.666;2024-01-15T08:30:26;0.90;99.90
59025;DHT22;44806;48.008;13.666;2024-01-15T08:32:53;0.90;99.90
59025;DHT22;44806;48.008;13.666;2024-01-15T08:35:20;0.80;99.90
59025;DHT22;44806;48.008;13.666;2024-01-15T08:37:48;0.70;99.90
59025;DHT22;44806;48.008;13.666;2024-01-15T08:40:15;0.60;99.90
59025;DHT22;44806;48.008;13.666;2024-01-15T08:42:44;0.70;99.90
59025;DHT22;44806;48.008;13.666;2024-01-15T08:45:11;0.70;99.90
59025;DHT22;44806;48.008;13.666;2024-01-15T08:47:38;0.70;99.90
59025;DHT22;44806;48.008;13.666;2024-01-15T08:50:06;0.80;99.90
59025;DHT22;44806;48.008;13.666;2024-01-15T08:52:36;0.80;99.90
59025;DHT22;44806;48.008;13.666;2024-01-15T08:55:03;0.80;99.90
59025;DHT22;44806;48.008;13.666;2024-01-15T08:57:32;0.70;99.90
59025;DHT22;44806;48.008;13.666;2024-01-15T09:00:01;0.70;99.90
59025;DHT22;44806;48.008;13.666;2024-01-15T09:02:29;0.80;99.90
59025;DHT22;44806;48.008;13.666;2024-01-15T09:04:56;0.80;99.90
59025;DHT22;44806;48.008;13.666;2024-01-15T09:07:22;0.90;99.90
59025;DHT22;44806;48.008;13.666;2024-01-15T09:09:50;0.90;99.90
59025;DHT22;44806;48.008;13.666;2024-01-15T09:12:17;1.00;99.90
59025;DHT22;44806;48.008;13.666;2024-01-15T09:14:46;0.90;99.90
59025;DHT22;44806;48.008;13.666;2024-01-15T09:17:14;0.90;99.90
59025;DHT22;44806;48.008;13.666;2024-01-15T09:19:41;1.00;99.90
59025;DHT22;44806;48.008;13.666;2024-01-15T09:22:08;0.90;99.90
59025;DHT22;44806;48.008;13.666;2024-01-15T09:24:35;0.90;99.90
59025;DHT22;44806;48.008;13.666;2024-01-15T09:27:02;1.00;99.90
59025;DHT22;44806;48.008;13.666;2024-01-15T09:29:29;1.00;99.90
59025;DHT22;44806;48.008;13.666;2024-01-15T09:31:57;1.00;99.90
59025;DHT22;44806;48.008;13.666;2024-01-15T09:34:25;1.10;99.90
59025;DHT22;44806;48.008;13.666;2024-01-15T09:36:52;1.10;99.90
59025;DHT22;44806;48.008;13.666;2024-01-15T09:39:19;1.10;99.90
59025;DHT22;44806;48.008;13.666;2024-01-15T09:41:47;1.10;99.90
59025;DHT22;44806;48.008;13.666;2024-01-15T09:44:16;1.10;99.90
59025;DHT22;44806;48.008;13.666;2024-01-15T09:46:43;1.10;99.90
59025;DHT22;44806;48.008;13.666;2024-01-15T09:49:10;1.00;99.90
59025;DHT22;44806;48.008;13.666;2024-01-15T09:51:39;1.10;99.90
59025;DHT22;44806;48.008;13.666;2024-01-15T09:54:07;1.10;99.90
59025;DHT22;44806;48.008;13.666;2024-01-15T09:56:34;1.00;99.90
59025;DHT22;44806;48.008;13.666;2024-01-15T09:59:01;1.00;99.90
59025;DHT22;44806;48.008;13.666;2024-01-15T10:01:31;1.10;99.90
59025;DHT22;44806;48.008;13.666;2024-01-15T10:03:58;1.20;99.90
59025;DHT22;44806;48.008;13.666;2024-01-15T10:06:27;1.20;99.90
59025;DHT22;44806;48.008;13.666;2024-01-15T10:08:56;1.20;99.90
59025;DHT22;44806;48.008;13.666;2024-01-15T10:11:23;1.20;99.90
59025;DHT22;44806;48.008;13.666;2024-01-15T10:13:51;1.20;99.90
59025;DHT22;44806;48.008;13.666;2024-01-15T10:16:18;1.30;99.90
59025;DHT22;44806;48.008;13.666;2024-01-15T10:18:46;1.30;99.90
59025;DHT22;44806;48.008;13.666;2024-01-15T10:21:13;1.30;99.90
59025;DHT22;44806;48.008;13.666;2024-01-15T10:23:41;1.30;99.90
59025;DHT22;44806;48.008;13.666;2024-01-15T10:26:09;1.30;99.90
59025;DHT22;44806;48.008;13.666;2024-01-15T10:28:37;1.40;99.90
59025;DHT22;44806;48.008;13.666;2024-01-15T10:31:04;1.40;99.90
59025;DHT22;44806;48.008;13.666;2024-01-15T10:33:31;1.50;99.90
59025;DHT22;44806;48.008;13.666;2024-01-15T10:36:00;1.70;99.90
59025;DHT22;44806;48.008;13.666;2024-01-15T10:38:27;1.70;99.90
59025;DHT22;44806;48.008;13.666;2024-01-15T10:40:55;1.60;99.90
59025;DHT22;44806;48.008;13.666;2024-01-15T10:43:23;1.50;99.90
59025;DHT22;44806;48.008;13.666;2024-01-15T10:45:51;1.50;99.90
59025;DHT22;44806;48.008;13.666;2024-01-15T10:48:18;1.50;99.90
59025;DHT22;44806;48.008;13.666;2024-01-15T10:50:47;1.40;99.90
59025;DHT22;44806;48.008;13.666;2024-01-15T10:53:15;1.50;99.90
59025;DHT22;44806;48.008;13.666;2024-01-15T10:55:42;1.60;99.90
59025;DHT22;44806;48.008;13.666;2024-01-15T10:58:09;1.60;99.90
59025;DHT22;44806;48.008;13.666;2024-01-15T11:00:38;1.50;99.90
59025;DHT22;44806;48.008;13.666;2024-01-15T11:03:06;1.50;99.90
59025;DHT22;44806;48.008;13.666;2024-01-15T11:05:34;1.60;99.90
59025;DHT22;44806;48.008;13.666;2024-01-15T11:08:05;1.60;99.90
59025;DHT22;44806;48.008;13.666;2024-01-15T11:10:39;1.40;99.90
59025;DHT22;44806;48.008;13.666;2024-01-15T11:13:13;1.50;99.90
59025;DHT22;44806;48.008;13.666;2024-01-15T11:16:01;1.60;99.90
59025;DHT22;44806;48.008;13.666;2024-01-15T11:18:29;1.50;99.90
59025;DHT22;44806;48.008;13.666;2024-01-15T11:21:22;1.60;99.90
59025;DHT22;44806;48.008;13.666;2024-01-15T11:23:52;1.60;99.90
59025;DHT22;44806;48.008;13.666;2024-01-15T11:26:30;1.70;99.90
59025;DHT22;44806;48.008;13.666;2024-01-15T11:28:58;1.50;99.90
59025;DHT22;44806;48.008;13.666;2024-01-15T11:31:29;1.40;99.90
59025;DHT22;44806;48.008;13.666;2024-01-15T11:33:56;1.40;99.90
59025;DHT22;44806;48.008;13.666;2024-01-15T11:39:40;1.50;99.90
59025;DHT22;44806;48.008;13.666;2024-01-15T11:42:09;1.60;99.90
59025;DHT22;44806;48.008;13.666;2024-01-15T11:44:37;1.60;99.90
59025;DHT22;44806;48.008;13.666;2024-01-15T11:47:08;1.50;99.90
59025;DHT22;44806;48.008;13.666;2024-01-15T11:50:00;1.60;99.90
59025;DHT22;44806;48.008;13.666;2024-01-15T11:52:33;1.70;99.90
59025;DHT22;44806;48.008;13.666;2024-01-15T11:55:05;1.80;99.90
59025;DHT22;44806;48.008;13.666;2024-01-15T11:57:41;1.70;99.90
59025;DHT22;44806;48.008;13.666;2024-01-15T12:00:10;1.80;99.90
59025;DHT22;44806;48.008;13.666;2024-01-15T12:02:39;1.80;99.90
59025;DHT22;44806;48.008;13.666;2024-01-15T12:05:07;1.70;99.90
59025;DHT22;44806;48.008;13.666;2024-01-15T12:07:34;1.70;99.90
59025;DHT22;44806;48.008;13.666;2024-01-15T12:10:02;1.80;99.90
59025;DHT22;44806;48.008;13.666;2024-01-15T12:12:57;1.90;99.90
59025;DHT22;44806;48.008;13.666;2024-01-15T12:15:24;1.90;99.90
59025;DHT22;44806;48.008;13.666;2024-01-15T12:17:54;1.90;99.90
59025;DHT22;44806;48.008;13.666;2024-01-15T12:20:21;2.00;99.90
59025;DHT22;44806;48.008;13.666;2024-01-15T12:22:48;2.00;99.90
59025;DHT22;44806;48.008;13.666;2024-01-15T12:25:16;1.90;99.90
59025;DHT22;44806;48.008;13.666;2024-01-15T12:27:43;1.80;99.90
59025;DHT22;44806;48.008;13.666;2024-01-15T12:30:11;1.80;99.90
59025;DHT22;44806;48.008;13.666;2024-01-15T12:32:40;1.60;99.90
59025;DHT22;44806;48.008;13.666;2024-01-15T12:35:10;1.70;99.90
59025;DHT22;44806;48.008;13.666;2024-01-15T12:37:38;1.70;99.90
59025;DHT22;44806;48.008;13.666;2024-01-15T12:40:08;1.70;99.90
59025;DHT22;44806;48.008;13.666;2024-01-15T12:42:35;1.50;99.90
59025;DHT22;44806;48.008;13.666;2024-01-15T12:45:03;1.50;99.90
59025;DHT22;44806;48.008;13.666;2024-01-15T12:47:30;1.60;99.90
59025;DHT22;44806;48.008;13.666;2024-01-15T12:49:58;1.60;99.90
59025;DHT22;44806;48.008;13.666;2024-01-15T12:52:28;1.30;99.90
59025;DHT22;44806;48.008;13.666;2024-01-15T12:54:56;1.30;99.90
59025;DHT22;44806;48.008;13.666;2024-01-15T12:57:23;1.30;99.90
59025;DHT22;44806;48.008;13.666;2024-01-15T12:59:50;1.20;99.90
59025;DHT22;44806;48.008;13.666;2024-01-15T13:02:17;1.10;99.90
59025;DHT22;44806;48.008;13.666;2024-01-15T13:04:44;1.20;99.90
59025;DHT22;44806;48.008;13.666;2024-01-15T13:07:11;1.20;99.90
59025;DHT22;44806;48.008;13.666;2024-01-15T13:09:39;1.30;99.90
59025;DHT22;44806;48.008;13.666;2024-01-15T13:12:07;1.40;99.90
59025;DHT22;44806;48.008;13.666;2024-01-15T13:14:34;1.30;99.90
59025;DHT22;44806;48.008;13.666;2024-01-15T13:17:02;1.40;99.90
59025;DHT22;44806;48.008;13.666;2024-01-15T13:19:29;1.40;99.90
59025;DHT22;44806;48.008;13.666;2024-01-15T13:21:56;1.40;99.90
59025;DHT22;44806;48.008;13.666;2024-01-15T13:24:25;1.20;99.90
59025;DHT22;44806;48.008;13.666;2024-01-15T13:26:53;1.30;99.90
59025;DHT22;44806;48.008;13.666;2024-01-15T13:29:20;1.40;99.90
59025;DHT22;44806;48.008;13.666;2024-01-15T13:31:47;1.40;99.90
59025;DHT22;44806;48.008;13.666;2024-01-15T13:34:14;1.50;99.90
59025;DHT22;44806;48.008;13.666;2024-01-15T13:36:41;1.50;99.90
59025;DHT22;44806;48.008;13.666;2024-01-15T13:39:08;1.50;99.90
59025;DHT22;44806;48.008;13.666;2024-01-15T13:41:36;1.50;99.90
59025;DHT22;44806;48.008;13.666;2024-01-15T13:44:04;1.40;99.90
59025;DHT22;44806;48.008;13.666;2024-01-15T13:46:31;1.30;99.90
59025;DHT22;44806;48.008;13.666;2024-01-15T13:48:59;1.30;99.90
59025;DHT22;44806;48.008;13.666;2024-01-15T13:51:27;1.30;99.90
59025;DHT22;44806;48.008;13.666;2024-01-15T13:53:55;1.40;99.90
59025;DHT22;44806;48.008;13.666;2024-01-15T13:56:22;1.20;99.90
59025;DHT22;44806;48.008;13.666;2024-01-15T13:58:49;1.10;99.90
59025;DHT22;44806;48.008;13.666;2024-01-15T14:01:18;1.10;99.90
59025;DHT22;44806;48.008;13.666;2024-01-15T14:03:45;1.30;99.90
59025;DHT22;44806;48.008;13.666;2024-01-15T14:06:12;1.30;99.90
59025;DHT22;44806;48.008;13.666;2024-01-15T14:08:39;1.30;99.90
59025;DHT22;44806;48.008;13.666;2024-01-15T14:11:06;1.30;99.90
59025;DHT22;44806;48.008;13.666;2024-01-15T14:13:33;1.30;99.90
59025;DHT22;44806;48.008;13.666;2024-01-15T14:16:00;1.40;99.90
59025;DHT22;44806;48.008;13.666;2024-01-15T14:18:28;1.30;99.90
59025;DHT22;44806;48.008;13.666;2024-01-15T14:20:55;1.30;99.90
59025;DHT22;44806;48.008;13.666;2024-01-15T14:23:22;1.40;99.90
59025;DHT22;44806;48.008;13.666;2024-01-15T14:25:49;1.50;99.90
59025;DHT22;44806;48.008;13.666;2024-01-15T14:28:16;1.40;99.90
59025;DHT22;44806;48.008;13.666;2024-01-15T14:30:43;1.50;99.90
59025;DHT22;44806;48.008;13.666;2024-01-15T14:33:10;1.50;99.90
59025;DHT22;44806;48.008;13.666;2024-01-15T14:35:38;1.50;99.90
59025;DHT22;44806;48.008;13.666;2024-01-15T14:38:05;1.50;99.90
59025;DHT22;44806;48.008;13.666;2024-01-15T14:40:34;1.60;99.90
59025;DHT22;44806;48.008;13.666;2024-01-15T14:43:01;1.60;99.90
59025;DHT22;44806;48.008;13.666;2024-01-15T14:45:28;1.60;99.90
59025;DHT22;44806;48.008;13.666;2024-01-15T14:47:55;1.60;99.90
59025;DHT22;44806;48.008;13.666;2024-01-15T14:50:24;1.60;99.90
59025;DHT22;44806;48.008;13.666;2024-01-15T14:52:52;1.60;99.90
59025;DHT22;44806;48.008;13.666;2024-01-15T14:55:19;1.70;99.90
59025;DHT22;44806;48.008;13.666;2024-01-15T14:57:48;1.70;99.90
59025;DHT22;44806;48.008;13.666;2024-01-15T15:00:16;1.60;99.90
59025;DHT22;44806;48.008;13.666;2024-01-15T15:02:43;1.60;99.90
59025;DHT22;44806;48.008;13.666;2024-01-15T15:05:10;1.60;99.90
59025;DHT22;44806;48.008;13.666;2024-01-15T15:07:39;1.60;99.90
59025;DHT22;44806;48.008;13.666;2024-01-15T15:10:09;1.60;99.90
59025;DHT22;44806;48.008;13.666;2024-01-15T15:12:36;1.50;99.90
59025;DHT22;44806;48.008;13.666;2024-01-15T15:15:04;1.50;99.90
59025;DHT22;44806;48.008;13.666;2024-01-15T15:17:32;1.50;99.90
59025;DHT22;44806;48.008;13.666;2024-01-15T15:20:00;1.50;99.90
59025;DHT22;44806;48.008;13.666;2024-01-15T15:22:28;1.50;99.90
59025;DHT22;44806;48.008;13.666;2024-01-15T15:24:55;1.50;99.90
59025;DHT22;44806;48.008;13.666;2024-01-15T15:27:23;1.50;99.90
59025;DHT22;44806;48.008;13.666;2024-01-15T15:29:52;1.50;99.90
59025;DHT22;44806;48.008;13.666;2024-01-15T15:32:19;1.50;99.90
59025;DHT22;44806;48.008;13.666;2024-01-15T15:34:46;1.50;99.90